createdAt,value
2024-01-06T00:04:52.608Z,9
2024-01-06T00:09:52.575Z,9
2024-01-06T00:14:52.710Z,9
2024-01-06T00:19:53.004Z,9
2024-01-06T00:24:52.802Z,9
2024-01-06T00:29:52.705Z,9
2024-01-06T00:34:52.616Z,9
2024-01-06T00:39:52.524Z,8
2024-01-06T00:44:52.508Z,8
2024-01-06T00:49:52.494Z,8
2024-01-06T00:54:52.563Z,7
2024-01-06T00:59:52.538Z,7
2024-01-06T01:04:52.719Z,7
2024-01-06T01:09:53.045Z,7
2024-01-06T01:14:52.421Z,7
2024-01-06T01:19:52.937Z,6
2024-01-06T01:24:53.101Z,6
2024-01-06T01:29:52.607Z,6
2024-01-06T01:34:52.486Z,6
2024-01-06T01:39:52.411Z,6
2024-01-06T01:44:52.644Z,6
2024-01-06T01:49:52.770Z,6
2024-01-06T01:54:53.084Z,5
2024-01-06T01:59:52.519Z,6
2024-01-06T02:04:52.984Z,6
2024-01-06T02:09:52.468Z,5
2024-01-06T02:14:52.468Z,5
2024-01-06T02:19:52.868Z,6
2024-01-06T02:24:53.560Z,6
2024-01-06T02:29:52.640Z,6
2024-01-06T02:34:52.573Z,5
2024-01-06T02:39:53.265Z,5
2024-01-06T02:44:52.375Z,5
2024-01-06T02:49:52.488Z,5
2024-01-06T02:54:52.618Z,5
2024-01-06T02:59:52.445Z,5
2024-01-06T03:04:53.858Z,5
2024-01-06T03:09:52.614Z,5
2024-01-06T03:14:52.322Z,5
2024-01-06T03:19:52.476Z,5
2024-01-06T03:24:52.553Z,5
2024-01-06T03:29:52.514Z,5
2024-01-06T03:34:52.517Z,4
2024-01-06T03:39:52.588Z,5
2024-01-06T03:44:52.547Z,5
2024-01-06T03:49:52.568Z,5
2024-01-06T03:54:52.421Z,5
2024-01-06T03:59:52.656Z,5
2024-01-06T04:04:52.677Z,5
2024-01-06T04:09:52.945Z,5
2024-01-06T04:14:52.654Z,5
2024-01-06T04:19:52.827Z,5
2024-01-06T04:24:52.424Z,5
2024-01-06T04:29:52.298Z,6
2024-01-06T04:34:52.624Z,6
2024-01-06T04:39:52.584Z,6
2024-01-06T04:44:52.566Z,6
2024-01-06T04:49:52.318Z,6
2024-01-06T04:54:52.575Z,6
2024-01-06T04:59:52.516Z,6
2024-01-06T05:04:52.235Z,6
2024-01-06T05:09:52.505Z,6
2024-01-06T05:14:52.537Z,6
2024-01-06T05:19:52.664Z,6
2024-01-06T05:24:52.387Z,6
2024-01-06T05:29:52.454Z,5
2024-01-06T05:34:52.337Z,5
2024-01-06T05:39:52.577Z,5
2024-01-06T05:44:52.304Z,5
2024-01-06T05:49:52.457Z,4
2024-01-06T05:54:52.728Z,5
2024-01-06T05:59:52.471Z,4
2024-01-06T06:04:52.308Z,4
2024-01-06T06:09:53.679Z,4
2024-01-06T06:14:52.523Z,4
2024-01-06T06:19:52.366Z,4
2024-01-06T06:24:52.447Z,4
2024-01-06T06:29:52.384Z,4
2024-01-06T06:34:52.486Z,4
2024-01-06T06:39:52.732Z,4
2024-01-06T06:44:52.182Z,4
2024-01-06T06:49:52.561Z,4
2024-01-06T06:54:52.657Z,4
2024-01-06T06:59:52.366Z,4
2024-01-06T07:04:52.213Z,4
2024-01-06T07:09:52.428Z,4
2024-01-06T07:14:52.790Z,4
2024-01-06T07:19:52.458Z,4
2024-01-06T07:24:52.713Z,4
2024-01-06T07:29:52.457Z,4
2024-01-06T07:34:52.584Z,4
2024-01-06T07:39:52.514Z,4
2024-01-06T07:44:52.452Z,4
2024-01-06T07:49:52.455Z,5
2024-01-06T07:54:52.263Z,5
2024-01-06T07:59:52.152Z,5
2024-01-06T08:04:52.693Z,5
2024-01-06T08:09:52.435Z,5
2024-01-06T08:14:52.399Z,5
2024-01-06T08:19:52.303Z,5
2024-01-06T08:24:52.347Z,5
2024-01-06T08:29:52.474Z,6
2024-01-06T08:34:52.585Z,6
2024-01-06T08:39:52.252Z,6
2024-01-06T08:44:52.657Z,6
2024-01-06T08:49:52.167Z,6
2024-01-06T08:54:52.464Z,6
2024-01-06T08:59:52.511Z,6
2024-01-06T09:04:52.431Z,6
2024-01-06T09:09:52.131Z,6
2024-01-06T09:14:52.343Z,6
2024-01-06T09:19:52.422Z,6
2024-01-06T09:24:52.018Z,6
2024-01-06T09:29:52.351Z,6
2024-01-06T09:34:53.465Z,6
2024-01-06T09:39:53.094Z,6
2024-01-06T09:44:53.696Z,6
2024-01-06T09:49:54.519Z,6
2024-01-06T09:54:53.040Z,6
2024-01-06T09:59:53.009Z,6
2024-01-06T10:04:53.146Z,6
2024-01-06T10:09:53.540Z,6
2024-01-06T10:14:52.421Z,6
2024-01-06T10:19:52.215Z,6
2024-01-06T10:24:52.879Z,6
2024-01-06T10:29:52.628Z,6
2024-01-06T10:34:52.894Z,6
2024-01-06T10:40:05.949Z,6
2024-01-06T10:44:53.193Z,6
2024-01-06T10:49:57.500Z,6
2024-01-06T10:54:52.719Z,6
2024-01-06T10:59:52.123Z,6
2024-01-06T11:04:52.575Z,6
2024-01-06T11:09:55.274Z,6
2024-01-06T11:14:52.102Z,6
2024-01-06T11:20:04.542Z,5
2024-01-06T11:24:52.977Z,6
2024-01-06T11:29:52.202Z,6
2024-01-06T11:34:52.124Z,6
2024-01-06T11:39:52.152Z,6
2024-01-06T11:44:52.192Z,5
2024-01-06T11:49:52.275Z,5
2024-01-06T11:54:54.181Z,5
2024-01-06T11:59:51.877Z,5
2024-01-06T12:04:52.123Z,6
2024-01-06T12:09:52.027Z,6
2024-01-06T12:14:52.036Z,5
2024-01-06T12:19:52.055Z,5
2024-01-06T12:24:52.172Z,5
2024-01-06T12:29:52.131Z,5
2024-01-06T12:34:52.228Z,5
2024-01-06T12:39:52.498Z,5
2024-01-06T12:44:52.068Z,5
2024-01-06T12:49:52.189Z,5
2024-01-06T12:54:52.109Z,5
2024-01-06T12:59:52.159Z,5
2024-01-06T13:04:52.223Z,5
2024-01-06T13:09:52.284Z,5
2024-01-06T13:14:52.166Z,6
2024-01-06T13:19:52.057Z,6
2024-01-06T13:24:54.228Z,6
2024-01-06T13:29:52.148Z,6
2024-01-06T13:34:52.317Z,6
2024-01-06T13:39:52.168Z,6
2024-01-06T13:44:52.136Z,7
2024-01-06T13:49:52.874Z,7
2024-01-06T13:54:52.467Z,7
2024-01-06T13:59:52.109Z,7
2024-01-06T14:04:51.973Z,7
2024-01-06T14:09:52.184Z,7
2024-01-06T14:14:51.853Z,7
2024-01-06T14:19:52.172Z,7
2024-01-06T14:24:51.945Z,7
2024-01-06T14:29:52.157Z,7
2024-01-06T14:34:52.004Z,7
2024-01-06T14:39:52.318Z,7
2024-01-06T14:44:51.840Z,7
2024-01-06T14:49:52.515Z,8
2024-01-06T14:54:51.942Z,7
2024-01-06T14:59:52.015Z,7
2024-01-06T15:04:51.949Z,7
2024-01-06T15:09:52.119Z,7
2024-01-06T15:14:52.157Z,7
2024-01-06T15:19:52.288Z,8
2024-01-06T15:24:57.463Z,8
2024-01-06T15:29:52.471Z,8
2024-01-06T15:34:52.076Z,8
2024-01-06T15:39:52.113Z,8
2024-01-06T15:44:51.985Z,8
2024-01-06T15:49:52.197Z,8
2024-01-06T15:54:51.975Z,7
2024-01-06T15:59:52.346Z,8
2024-01-06T16:04:52.107Z,7
2024-01-06T16:09:52.077Z,7
2024-01-06T16:14:52.123Z,7
2024-01-06T16:19:52.029Z,6
2024-01-06T16:24:51.831Z,6
2024-01-06T16:29:52.124Z,6
2024-01-06T16:34:52.145Z,6
2024-01-06T16:39:52.102Z,6
2024-01-06T16:44:51.731Z,6
2024-01-06T16:49:52.054Z,6
2024-01-06T16:54:51.986Z,6
2024-01-06T16:59:51.809Z,6
2024-01-06T17:04:52.180Z,5
2024-01-06T17:09:51.830Z,5
2024-01-06T17:14:51.972Z,5
2024-01-06T17:19:52.240Z,5
2024-01-06T17:24:52.206Z,6
2024-01-06T17:29:52.807Z,6
2024-01-06T17:34:52.149Z,6
2024-01-06T17:39:52.004Z,6
2024-01-06T17:44:52.444Z,6
2024-01-06T17:49:51.945Z,6
2024-01-06T17:54:52.029Z,6
2024-01-06T17:59:52.017Z,6
2024-01-06T18:04:51.968Z,6
2024-01-06T18:09:52.084Z,6
2024-01-06T18:14:51.962Z,6
2024-01-06T18:19:52.124Z,6
2024-01-06T18:24:51.774Z,6
2024-01-06T18:29:52.011Z,6
2024-01-06T18:34:51.895Z,6
2024-01-06T18:39:51.841Z,6
2024-01-06T18:44:51.962Z,6
2024-01-06T18:49:51.988Z,6
2024-01-06T18:54:52.048Z,6
2024-01-06T18:59:51.748Z,6
2024-01-06T19:04:51.760Z,6
2024-01-06T19:09:51.814Z,6
2024-01-06T19:14:51.874Z,6
2024-01-06T19:19:51.898Z,7
2024-01-06T19:24:51.618Z,7
2024-01-06T19:29:51.704Z,7
2024-01-06T19:34:52.060Z,7
2024-01-06T19:39:51.888Z,7
2024-01-06T19:44:51.797Z,7
2024-01-06T19:49:51.844Z,7
2024-01-06T19:54:52.012Z,8
2024-01-06T19:59:51.904Z,8
2024-01-06T20:04:54.677Z,8
2024-01-06T20:09:51.756Z,8
2024-01-06T20:14:51.619Z,8
2024-01-06T20:19:51.848Z,8
2024-01-06T20:24:51.918Z,8
2024-01-06T20:29:51.766Z,8
2024-01-06T20:34:52.819Z,8
2024-01-06T20:39:51.936Z,8
2024-01-06T20:44:51.794Z,8
2024-01-06T20:49:51.599Z,8
2024-01-06T20:54:51.647Z,8
2024-01-06T20:59:52.116Z,8
2024-01-06T21:04:51.893Z,9
2024-01-06T21:09:51.595Z,10
2024-01-06T21:14:51.983Z,10
2024-01-06T21:19:51.632Z,10
2024-01-06T21:24:51.778Z,10
2024-01-06T21:29:51.680Z,10
2024-01-06T21:34:51.745Z,10
2024-01-06T21:39:51.597Z,10
2024-01-06T21:44:51.620Z,11
2024-01-06T21:49:51.614Z,11
2024-01-06T21:54:51.736Z,11
2024-01-06T21:59:51.830Z,11
2024-01-06T22:04:51.719Z,11
2024-01-06T22:09:51.993Z,11
2024-01-06T22:14:51.465Z,11
2024-01-06T22:19:51.558Z,11
2024-01-06T22:24:51.624Z,11
2024-01-06T22:29:51.832Z,11
2024-01-06T22:34:53.010Z,11
2024-01-06T22:39:51.871Z,11
2024-01-06T22:44:51.461Z,11
2024-01-06T22:49:51.495Z,10
2024-01-06T22:54:51.998Z,11
2024-01-06T22:59:52.153Z,11
2024-01-06T23:04:51.658Z,11
2024-01-06T23:09:51.882Z,11
2024-01-06T23:14:51.626Z,11
2024-01-06T23:19:51.503Z,11
2024-01-06T23:24:51.534Z,11
2024-01-06T23:29:51.398Z,11
2024-01-06T23:34:51.833Z,11
2024-01-06T23:39:51.641Z,11
2024-01-06T23:44:51.710Z,11
2024-01-06T23:49:51.776Z,11
2024-01-06T23:54:51.576Z,11
2024-01-06T23:59:51.590Z,11
